• Join FlightAware (Why Join?)
  • Login
  • US Flag 
02:57PM EDT


 

Airport Tracker/Info


-or-


 

Live Flight TrackerFlight Track Log ✈ UAL788 ✈ 24-Jul-2013 ✈ KSFO - KBOS

Flight Track Log - Related Links

Times and Time Zones

All times are in EDT time to prevent confusion due to time zone crossing. See the UAL788 flight status page for this flight to view local times or setup timezone preferences in your user account.

Time Position Orientation Groundspeed Altitude Reporting Facility
EDT Latitude Longitude Course Direction KTS MPH feet Rate Location/Type
03:10PM 37.6333 -122.3500 38° Northeast 167 192 1,400  Level Northern Cal TRACON
03:11PM 37.6833 -122.3000 38° Northeast 208 239 3,200 1,860 Climbing Northern Cal TRACON
03:12PM 37.7333 -122.2333 47° Northeast 256 295 5,200 2,280 Climbing Northern Cal TRACON
03:13PM 37.6251 -122.4022 119° Southeast  Level FlightAware Approximate
03:13PM 37.7833 -122.1833 38° Northeast 281 323 7,800  Level Northern Cal TRACON
03:14PM 37.6989 -122.2845 38° Northeast  Level FlightAware Approximate
03:14PM 37.8500 -122.1167 38° Northeast 292 336 10,300  Level Northern Cal TRACON
03:15PM 37.8049 -122.1785 38° Northeast  Level FlightAware Approximate
03:15PM 37.8842 -122.0833 38° Northeast 292 336 10,700  Level Oakland Center
03:16PM 37.9650 -122.0064 37° Northeast 350 403 12,300 1,920 Climbing Oakland Center
03:17PM 38.0661 -121.9089 37° Northeast 379 436 14,700 2,340 Climbing Oakland Center
03:18PM 38.1556 -121.8264 36° Northeast 392 451 17,100 2,400 Climbing Oakland Center
03:19PM 38.2439 -121.7422 37° Northeast 398 458 19,700 2,340 Climbing Oakland Center
03:20PM 38.3358 -121.6525 37° Northeast 411 473 22,000 2,040 Climbing Oakland Center
03:21PM 38.4303 -121.5611 37° Northeast 424 488 24,000 1,620 Climbing Oakland Center
03:22PM 38.5092 -121.4419 50° Northeast 440 506 25,400 1,200 Climbing Oakland Center
03:23PM 38.5856 -121.3083 54° Northeast 464 534 26,500 1,380 Climbing Oakland Center
03:24PM 38.6822 -121.1419 53° Northeast 486 559 28,300 1,320 Climbing Oakland Center
03:25PM 38.7617 -121.0003 54° Northeast 492 566 29,300 1,080 Climbing Oakland Center
03:26PM 38.8444 -120.8575 53° Northeast 500 575 30,500 1,500 Climbing Oakland Center
03:27PM 38.9269 -120.7167 53° Northeast 496 571 32,400 1,500 Climbing Oakland Center
03:28PM 39.0072 -120.5781 53° Northeast 483 556 33,700 1,080 Climbing Oakland Center
03:29PM 39.0839 -120.4442 54° Northeast 474 545 34,700 540 Climbing Oakland Center
03:30PM 39.1683 -120.3067 52° Northeast 482 555 34,900 120 Climbing Oakland Center
03:31PM 39.2589 -120.1386 55° Northeast 477 549 35,000  Climbing Oakland Center
03:32PM 39.3331 -120.0158 52° Northeast 479 551 35,000  Level Oakland Center
03:33PM 39.4111 -119.8767 54° Northeast 477 549 35,000  Level Oakland Center
03:34PM 39.4889 -119.7369 54° Northeast 476 548 35,000  Level Oakland Center
03:35PM 39.5664 -119.5978 54° Northeast 474 545 35,000  Level Oakland Center
03:36PM 39.6525 -119.4231 57° Northeast 476 548 35,000  Level Oakland Center
03:37PM 39.7128 -119.2694 63° Northeast 478 550 35,000  Level Oakland Center
03:38PM 39.7706 -119.1142 64° Northeast 474 545 35,000  Level Oakland Center
03:39PM 39.8292 -118.9572 64° Northeast 477 549 35,000  Level Oakland Center
03:40PM 39.8875 -118.7997 64° Northeast 477 549 35,000  Level Oakland Center
03:41PM 39.9458 -118.6431 64° Northeast 477 549 35,000  Level Oakland Center
03:42PM 40.0039 -118.4881 64° Northeast 474 545 35,000  Level Oakland Center
03:44PM 40.0606 -118.3322 65° Northeast 474 545 35,000  Level Oakland Center
03:45PM 40.1181 -118.1781 64° Northeast 473 544 35,000  Level Oakland Center
03:46PM 40.1742 -118.0233 65° Northeast 470 541 35,000  Level Oakland Center
03:47PM 40.2303 -117.8689 65° Northeast 470 541 35,000  Level Oakland Center
03:48PM 40.2900 -117.7056 64° Northeast 468 539 35,000  Level Oakland Center
03:49PM 40.3522 -117.5317 65° Northeast 470 541 35,000  Level Oakland Center
03:50PM 40.4047 -117.3828 65° Northeast 471 542 35,000  Level Oakland Center
03:51PM 40.4681 -117.2094 64° Northeast 470 541 35,000  Level Oakland Center
03:52PM 40.5231 -117.0597 64° Northeast 471 542 35,000  Level Oakland Center
03:53PM 40.5758 -116.9039 66° East 479 551 35,000  Level Oakland Center
03:54PM 40.6328 -116.7239 67° East 482 555 35,000  Level Oakland Center
03:55PM 40.6739 -116.5683 71° East 473 544 35,000  Level Oakland Center
03:56PM 40.7283 -116.3331 73° East 469 540 35,000  Level Salt Lake Center
03:57PM 40.7775 -116.1508 70° East 470 541 35,000  Level Salt Lake Center
03:59PM 40.8276 -115.9556 71° East  Level FlightAware Approximate
03:59PM 40.8606 -115.8411 71° East 469 540 35,000  Level Salt Lake Center
04:00PM 40.9067 -115.6594 71° East 466 536 35,000  Level Salt Lake Center
04:01PM 40.9478 -115.5044 71° East 466 536 35,000  Level Salt Lake Center
04:02PM 40.9944 -115.3228 71° East 467 537 35,000  Level Salt Lake Center
04:04PM 41.0336 -115.1658 72° East 468 539 35,000  Level Salt Lake Center
04:05PM 41.0808 -114.9839 71° East 468 539 35,000  Level Salt Lake Center
04:06PM 41.1194 -114.8283 72° East 465 535 35,000  Level Salt Lake Center
04:07PM 41.1614 -114.6617 71° East 467 537 35,000  Level Salt Lake Center
04:08PM 41.2017 -114.4986 72° East 466 536 35,000  Level Salt Lake Center
04:09PM 41.2522 -114.3019 71° East 469 540 35,000  Level Salt Lake Center
04:10PM 41.2922 -114.1367 72° East 470 541 35,000  Level Salt Lake Center
04:11PM 41.3314 -113.9708 72° East 470 541 35,000  Level Salt Lake Center
04:12PM 41.3706 -113.8050 72° East 471 542 35,000  Level Salt Lake Center
04:13PM 41.4156 -113.6414 70° East 471 542 35,000  Level Salt Lake Center
04:14PM 41.4608 -113.4772 70° East 471 542 35,000  Level Salt Lake Center
04:15PM 41.5125 -113.2781 71° East 474 545 35,000  Level Salt Lake Center
04:16PM 41.5550 -113.1131 71° East 471 542 35,000  Level Salt Lake Center
04:17PM 41.5967 -112.9472 71° East 471 542 35,000  Level Salt Lake Center
04:18PM 41.6400 -112.7808 71° East 472 543 35,000  Level Salt Lake Center
04:19PM 41.6828 -112.6144 71° East 473 544 35,000  Level Salt Lake Center
04:20PM 41.7261 -112.4469 71° East 474 545 35,000  Level Salt Lake Center
04:21PM 41.7692 -112.2794 71° East 476 548 35,000  Level Salt Lake Center
04:22PM 41.8175 -112.0775 72° East 474 545 35,000  Level Salt Lake Center
04:23PM 41.8592 -111.9078 72° East 477 549 35,000  Level Salt Lake Center
04:24PM 41.9008 -111.7397 72° East 475 547 35,000  Level Salt Lake Center
04:25PM 41.9433 -111.5706 71° East 478 550 35,000  Level Salt Lake Center
04:26PM 41.9847 -111.4006 72° East 478 550 35,000  Level Salt Lake Center
04:27PM 42.0258 -111.2294 72° East 480 552 35,000  Level Salt Lake Center
04:28PM 42.0672 -111.0583 72° East 481 554 35,000  Level Salt Lake Center
04:29PM 42.1133 -110.8686 72° East 481 554 35,000  Level Salt Lake Center
04:30PM 42.1586 -110.6761 72° East 481 554 35,000  Level Salt Lake Center
04:31PM 42.1967 -110.5117 73° East 481 554 35,000  Level Salt Lake Center
04:32PM 42.2364 -110.3464 72° East 483 556 35,000  Level Salt Lake Center
04:33PM 42.2758 -110.1508 75° East 483 556 35,000  Level Salt Lake Center
04:35PM 42.3047 -109.9822 77° East 481 554 35,000  Level Salt Lake Center
04:36PM 42.3403 -109.7847 76° East 483 556 35,000  Level Salt Lake Center
04:37PM 42.3697 -109.6153 77° East 483 556 35,000  Level Salt Lake Center
04:38PM 42.4133 -109.4194 73° East 486 559 35,000 240 Level Salt Lake Center
04:39PM 42.4531 -109.2536 72° East 484 557 35,500 780 Climbing Salt Lake Center
04:40PM 42.4981 -109.0581 73° East 486 559 36,700 720 Climbing Salt Lake Center
04:41PM 42.5358 -108.8931 73° East 482 555 37,000 120 Climbing Salt Lake Center
04:42PM 42.5828 -108.7325 68° East 479 551 37,000  Level Salt Lake Center
04:43PM 42.6411 -108.5425 67° East 486 559 37,000  Level Salt Lake Center
04:44PM 42.6928 -108.3842 66° East 483 556 37,000  Level Salt Lake Center
04:45PM 42.7553 -108.1983 65° Northeast 483 556 37,000  Level Salt Lake Center
04:46PM 42.8117 -108.0378 64° Northeast 488 562 37,000  Level Salt Lake Center
04:47PM 42.8797 -107.8547 63° Northeast 487 560 37,000  Level Salt Lake Center
04:48PM 42.9197 -107.6894 72° East 485 558 37,000  Level Salt Lake Center
04:49PM 42.9425 -107.4947 81° East 486 559 37,000  Level Salt Lake Center
04:50PM 42.9633 -107.3125 81° East 488 562 37,000  Level Salt Lake Center
04:51PM 42.9800 -107.1831 80° East 489 563 37,000  Level Denver Center
04:52PM 42.9986 -107.0064 82° East 491 565 37,000  Level Denver Center
04:53PM 43.0217 -106.7981 81° East 498 573 37,000  Level Denver Center
04:54PM 43.0417 -106.6186 81° East 498 573 37,000  Level Denver Center
04:55PM 43.0631 -106.4083 82° East 500 575 37,000  Level Denver Center
04:56PM 43.0808 -106.2269 82° East 503 579 37,000  Level Denver Center
04:57PM 43.1033 -106.0167 82° East 502 578 37,000  Level Denver Center
04:58PM 43.1247 -105.8367 81° East 501 577 37,000  Level Denver Center
04:59PM 43.1525 -105.6258 80° East 502 578 37,000  Level Denver Center
05:00PM 43.1764 -105.4442 80° East 505 581 37,000  Level Denver Center
05:01PM 43.1992 -105.2642 80° East 502 578 37,000  Level Denver Center
05:02PM 43.2256 -105.0528 80° East 502 578 37,000  Level Denver Center
05:03PM 43.2472 -104.8717 81° East 502 578 37,000  Level Denver Center
05:04PM 43.2694 -104.6897 80° East 503 579 37,000  Level Denver Center
05:05PM 43.2950 -104.4781 81° East 502 578 37,000  Level Denver Center
05:06PM 43.3194 -104.2672 81° East 501 577 37,000  Level Denver Center
05:07PM 43.3411 -104.0853 81° East 502 578 37,000  Level Denver Center
05:08PM 43.3606 -103.8753 83° East 497 572 37,000  Level Denver Center
05:09PM 43.3600 -103.6911 90° East 501 577 37,000  Level Denver Center
05:10PM 43.3606 -103.5050 90° East 505 581 37,000  Level Denver Center
05:11PM 43.3594 -103.2894 90° East 505 581 37,000  Level Denver Center
05:12PM 43.3594 -103.1036 90° East 506 582 37,000  Level Denver Center
05:13PM 43.3592 -102.8861 90° East 509 586 37,000  Level Denver Center
05:14PM 43.3586 -102.6983 90° East 513 590 37,000  Level Denver Center
05:15PM 43.3583 -102.4772 90° East 518 596 37,000  Level Denver Center
05:17PM 43.3558 -102.2883 91° East 518 596 37,000  Level Denver Center
05:18PM 43.3506 -102.0953 92° East 525 604 37,000  Level Denver Center
05:19PM 43.3397 -101.8581 94° East 523 602 37,000  Level Denver Center
05:20PM 43.3344 -101.6578 92° East 526 605 37,000  Level Denver Center
05:21PM 43.3461 -101.4208 86° East 521 600 37,000  Level Denver Center
05:22PM 43.3656 -101.2264 82° East 517 595 37,000  Level Denver Center
05:23PM 43.3806 -101.0708 82° East 519 597 37,000  Level Minneapolis Center
05:24PM 43.3994 -100.8778 82° East 515 593 37,000  Level Minneapolis Center
05:25PM 43.4214 -100.6419 83° East 518 596 37,000  Level Minneapolis Center
05:26PM 43.4403 -100.4481 82° East 517 595 37,000  Level Minneapolis Center
05:27PM 43.4611 -100.2133 83° East 514 592 37,000  Level Denver Center
05:28PM 43.4758 -100.0594 82° East 514 592 37,000  Level Minneapolis Center
05:29PM 43.4925 -99.8647 83° East 514 592 37,000  Level Minneapolis Center
05:30PM 43.5131 -99.6319 83° East 513 590 37,000  Level Minneapolis Center
05:31PM 43.5294 -99.4364 83° East 515 593 37,000  Level Minneapolis Center
05:32PM 43.5456 -99.2417 83° East 515 593 37,000  Level Minneapolis Center
05:33PM 43.5603 -99.0469 84° East 514 592 37,000  Level Minneapolis Center
05:34PM 43.5756 -98.8517 84° East 514 592 37,000  Level Minneapolis Center
05:35PM 43.5936 -98.6336 83° East 513 590 37,000  Level Minneapolis Center
05:36PM 43.6075 -98.4381 84° East 515 593 37,000  Level Minneapolis Center
05:37PM 43.6219 -98.2431 84° East 513 590 37,000  Level Minneapolis Center
05:38PM 43.6369 -98.0503 84° East 509 586 37,000  Level Minneapolis Center
05:39PM 43.6525 -97.8189 85° East 507 583 37,000  Level Minneapolis Center
05:40PM 43.6667 -97.6264 84° East 506 582 37,000  Level Minneapolis Center
05:41PM 43.6781 -97.4347 85° East 504 580 37,000  Level Minneapolis Center
05:42PM 43.6914 -97.2422 84° East 506 582 37,000  Level Minneapolis Center
05:43PM 43.7019 -97.0514 86° East 503 579 37,000  Level Minneapolis Center
05:44PM 43.7144 -96.8597 85° East 504 580 37,000  Level Minneapolis Center
05:45PM 43.7281 -96.6303 85° East 503 579 37,000  Level Minneapolis Center
05:47PM 43.7386 -96.4422 85° East 499 574 37,000  Level Minneapolis Center
05:48PM 43.7497 -96.2531 85° East 500 575 37,000  Level Minneapolis Center
05:49PM 43.7594 -96.0658 86° East 497 572 37,000  Level Minneapolis Center
05:50PM 43.7719 -95.8406 86° East 495 570 37,000  Level Minneapolis Center
05:51PM 43.7808 -95.6544 86° East 491 565 37,000  Level Minneapolis Center
05:52PM 43.7900 -95.4697 86° East 488 562 37,000  Level Minneapolis Center
05:53PM 43.7978 -95.2844 87° East 486 559 37,000  Level Minneapolis Center
05:54PM 43.8050 -95.0986 87° East 486 559 37,000  Level Minneapolis Center
05:55PM 43.8156 -94.8742 86° East 489 563 37,000  Level Minneapolis Center
05:56PM 43.8233 -94.6864 87° East 491 565 37,000  Level Minneapolis Center
05:57PM 43.8311 -94.5000 87° East 488 562 37,000  Level Minneapolis Center
05:58PM 43.8378 -94.3122 87° East 490 564 37,000  Level Minneapolis Center
06:00PM 43.8511 -93.9269 87° East 491 565 37,000  Level Minneapolis Center
06:01PM 43.8592 -93.7031 87° East 489 563 37,000  Level Minneapolis Center
06:02PM 43.8647 -93.5181 88° East 486 559 37,000  Level Minneapolis Center
06:03PM 43.8703 -93.3322 88° East 486 559 37,000  Level Minneapolis Center
06:04PM 43.8753 -93.1475 88° East 485 558 37,000  Level Minneapolis Center
06:05PM 43.8794 -92.9633 88° East 482 555 37,000  Level Minneapolis Center
06:06PM 43.8844 -92.7425 88° East 481 554 37,000  Level Minneapolis Center
06:07PM 43.8883 -92.5594 88° East 479 551 37,000  Level Minneapolis Center
06:08PM 43.8928 -92.3767 88° East 478 550 37,000  Level Minneapolis Center
06:09PM 43.8967 -92.1919 88° East 480 552 37,000  Level Minneapolis Center
06:10PM 43.9000 -92.0089 88° East 479 551 37,000  Level Minneapolis Center
06:11PM 43.9028 -91.7869 89° East 481 554 37,000  Level Minneapolis Center
06:13PM 43.9094 -91.5194 88° East 484 557 37,000  Level Minneapolis Center
06:14PM 43.9108 -91.3358 89° East 482 555 37,000  Level Minneapolis Center
06:15PM 43.9131 -91.1528 89° East 479 551 37,000  Level Minneapolis Center
06:16PM 43.9150 -90.9703 89° East 477 549 37,000  Level Minneapolis Center
06:17PM 43.9161 -90.7864 89° East 478 550 37,000  Level Minneapolis Center
06:18PM 43.9161 -90.6061 90° East 474 545 37,000  Level Chicago Center
06:19PM 43.9181 -90.4253 89° East 473 544 37,000  Level Chicago Center
06:20PM 43.9181 -90.2197 90° East 472 543 37,000  Level Chicago Center
06:21PM 43.9167 -90.0347 91° East 477 549 37,000  Level Chicago Center
06:22PM 43.9172 -89.8508 90° East 476 548 37,000  Level Chicago Center
06:23PM 43.9147 -89.6689 91° East 474 545 37,000  Level Chicago Center
06:24PM 43.9153 -89.4822 90° East 479 551 37,000  Level Chicago Center
06:25PM 43.9142 -89.2672 90° East 477 549 37,000  Level Chicago Center
06:26PM 43.9128 -89.0817 91° East 479 551 37,000  Level Chicago Center
06:27PM 43.9103 -88.8975 91° East 476 548 37,000  Level Chicago Center
06:28PM 43.9092 -88.7103 90° East 484 557 37,000  Level Chicago Center
06:29PM 43.9075 -88.5247 91° East 479 551 37,000  Level Chicago Center
06:30PM 43.9056 -88.3394 91° East 476 548 37,000  Level Chicago Center
06:31PM 43.9028 -88.1536 91° East 479 551 37,000  Level Chicago Center
06:32PM 43.8994 -87.9372 91° East 478 550 37,000  Level Chicago Center
06:33PM 43.8958 -87.7522 91° East 479 551 37,000  Level Chicago Center
06:34PM 43.8922 -87.5664 91° East 480 552 37,000  Level Chicago Center
06:35PM 43.8881 -87.3797 92° East 483 556 37,000  Level Chicago Center
06:37PM 43.8806 -87.1931 93° East 488 562 37,000  Level Chicago Center
06:38PM 43.8775 -87.0072 91° East 484 557 37,000  Level Chicago Center
06:39PM 43.8694 -86.7844 93° East 483 556 37,000  Level Minneapolis Center
06:40PM 43.8647 -86.5989 92° East 482 555 37,000  Level Minneapolis Center
06:41PM 43.8581 -86.3764 92° East 481 554 37,000  Level Minneapolis Center
06:42PM 43.8531 -86.2278 93° East 482 555 37,000  Level Chicago Center
06:43PM 43.8447 -86.0033 93° East 483 556 37,000  Level Minneapolis Center
06:44PM 43.8386 -85.8175 93° East 483 556 37,000  Level Minneapolis Center
06:45PM 43.8311 -85.6297 93° East 485 558 37,000  Level Minneapolis Center
06:46PM 43.8242 -85.4439 93° East 484 557 37,000  Level Minneapolis Center
06:47PM 43.8161 -85.2197 93° East 484 557 37,000  Level Minneapolis Center
06:48PM 43.8081 -85.0342 93° East 484 557 37,000  Level Minneapolis Center
06:49PM 43.7992 -84.8481 94° East 484 557 37,000  Level Minneapolis Center
06:50PM 43.7903 -84.6617 94° East 485 558 37,000  Level Minneapolis Center
06:51PM 43.7828 -84.4758 93° East 484 557 37,000  Level Minneapolis Center
06:52PM 43.7728 -84.2886 94° East 487 560 37,000  Level Minneapolis Center
06:53PM 43.7631 -84.1028 94° East 486 559 37,000  Level Minneapolis Center
06:54PM 43.7528 -83.8803 94° East 486 559 37,000  Level Minneapolis Center
06:55PM 43.7419 -83.6928 95° East 488 562 37,000  Level Minneapolis Center
06:56PM 43.7325 -83.5047 94° East 490 564 37,000  Level Minneapolis Center
06:57PM 43.7197 -83.3192 95° East 488 562 37,000  Level Minneapolis Center
06:58PM 43.7106 -83.1308 94° East 491 565 37,000  Level Minneapolis Center
06:59PM 43.6983 -82.9442 95° East 490 564 37,000  Level Minneapolis Center
07:00PM 43.6667 -82.7667 104° East 490 564 37,000  Level Toronto Center
07:01PM 43.6667 -82.5833 90° East 490 564 37,000  Level Toronto Center
07:03PM 43.6503 -82.2614 94° East 483 556 37,000  Level Cleveland Center
07:04PM 43.6472 -82.1614 92° East 488 562 37,000  Level Minneapolis Center
07:04PM 43.6167 -82.0000 105° East 490 564 37,000  Level Toronto Center
07:05PM 43.6167 -81.8167 90° East 490 564 37,000  Level Toronto Center
07:06PM 43.6000 -81.6333 97° East 490 564 37,000  Level Toronto Center
07:07PM 43.5833 -81.4500 97° East 490 564 37,000  Level Toronto Center
07:08PM 43.5667 -81.2667 97° East 490 564 37,000  Level Toronto Center
07:09PM 43.5500 -81.0833 97° East 490 564 37,000  Level Toronto Center
07:10PM 43.5333 -80.9000 97° East 490 564 37,000  Level Toronto Center
07:11PM 43.5333 -80.7167 90° East 490 564 37,000  Level Toronto Center
07:12PM 43.5167 -80.5333 97° East 480 552 37,000  Level Toronto Center
07:13PM 43.5000 -80.3500 97° East 490 564 37,000  Level Toronto Center
07:14PM 43.4833 -80.1667 97° East 480 552 37,000  Level Toronto Center
07:15PM 43.4667 -79.9833 97° East 480 552 37,000  Level Toronto Center
07:16PM 43.4500 -79.8000 97° East 480 552 37,000  Level Toronto Center
07:17PM 43.4333 -79.6167 97° East 480 552 37,000  Level Toronto Center
07:18PM 43.4167 -79.4333 97° East 480 552 37,000  Level Toronto Center
07:19PM 43.4000 -79.2500 97° East 480 552 37,000  Level Toronto Center
07:20PM 43.3833 -79.0667 97° East 480 552 37,000  Level Toronto Center
07:21PM 43.3667 -78.8833 97° East 480 552 37,000  Level Toronto Center
07:22PM 43.3567 -78.7644 97° East 480 552 37,000  Level Cleveland Center
07:23PM 43.3392 -78.5853 98° East 480 552 37,000  Level Cleveland Center
07:24PM 43.3192 -78.4033 99° East 480 552 37,000  Level Cleveland Center
07:25PM 43.3031 -78.2183 97° East 480 552 37,000  Level Cleveland Center
07:26PM 43.2825 -78.0394 99° East 480 552 37,000  Level Cleveland Center
07:27PM 43.2617 -77.8578 99° East 480 552 37,000  Level Cleveland Center
07:29PM 43.2156 -77.4525 99° East 486 559 37,000  Level Boston Center
07:30PM 43.1961 -77.2742 98° East 486 559 37,000  Level Boston Center
07:31PM 43.1767 -77.0933 98° East 486 559 37,000  Level Boston Center
07:32PM 43.1547 -76.9150 100° East 486 559 37,000  Level Boston Center
07:33PM 43.1325 -76.7339 99° East 486 559 37,000  Level Boston Center
07:34PM 43.1106 -76.5303 98° East 486 559 37,000  Level Boston Center
07:35PM 43.0900 -76.3469 99° East 486 559 37,000 -60 Level Boston Center
07:36PM 43.0669 -76.1664 100° East 486 559 36,900  Descending Boston Center
07:37PM 43.0414 -75.9831 101° East 486 559 37,000  Climbing Boston Center
07:38PM 43.0178 -75.7969 100° East 486 559 37,000  Level Boston Center
07:39PM 42.9939 -75.6139 100° East 486 559 37,000  Level Boston Center
07:40PM 42.9697 -75.4281 100° East 486 559 37,000  Level Boston Center
07:41PM 42.9453 -75.2453 100° East 486 559 37,000 -60 Level Boston Center
07:42PM 42.9206 -75.0600 100° East 491 565 36,900  Descending Boston Center
07:43PM 42.8953 -74.8747 100° East 491 565 37,000  Climbing Boston Center
07:44PM 42.8756 -74.7294 100° East 491 565 37,000  Level Boston Center
07:45PM 42.8464 -74.5075 100° East 491 565 37,000  Level Boston Center
07:46PM 42.8225 -74.3253 100° East 486 559 37,000  Level Boston Center
07:47PM 42.7919 -74.1433 103° East 486 559 37,000 -60 Level Boston Center
07:48PM 42.7675 -73.9589 100° East 492 566 36,900  Descending Boston Center
07:49PM 42.7428 -73.7772 100° East 486 559 37,000  Climbing Boston Center
07:50PM 42.7278 -73.6103 97° East 486 559 37,000  Level Boston Center
07:51PM 42.7086 -73.4261 98° East 486 559 37,000 -840 Level Boston Center
07:52PM 42.6894 -73.2394 98° East 486 559 35,400 -2,280 Descending Boston Center
07:53PM 42.6717 -73.0556 97° East 486 559 32,500 -3,120 Descending Boston Center
07:54PM 42.6475 -72.8606 99° East 504 580 29,200 -2,760 Descending Boston Center
07:55PM 42.6253 -72.6772 99° East 504 580 27,000 -2,580 Descending Boston Center
07:56PM 42.6067 -72.5106 99° East 475 547 24,100 -2,580 Descending Boston Center
07:57PM 42.5817 -72.3272 100° East 483 556 21,900 -2,280 Descending Boston Center
07:58PM 42.5583 -72.1525 100° East 462 532 19,200 -2,580 Descending Boston Center
07:59PM 42.5369 -71.9781 99° East 425 489 16,300 -2,700 Descending Boston Center
08:00PM 42.5236 -71.8092 96° East 413 475 13,900 -2,400 Descending Boston Center
08:01PM 42.5103 -71.6769 98° East 407 468 11,600 -1,860 Descending Boston Center
08:02PM 42.5000 -71.5333 95° East 385 443 10,400 -900 Descending KA90
08:03PM 42.4833 -71.4000 100° East 324 373 9,900 -960 Descending KA90
08:04PM 42.4667 -71.2833 101° East 305 351 8,500 -1,320 Descending KA90
08:06PM 42.4500 -71.0667 96° East 291 335 6,100 -840 Descending KA90
08:07PM 42.4333 -70.9833 105° East 249 287 6,000 -60 Descending KA90
08:08PM 42.3667 -70.9500 160° South 233 268 6,000  Level KA90
08:09PM 42.3167 -70.9167 154° Southeast 229 264 6,000 -600 Level KA90
08:11PM 42.1928 -70.9717 198° South 233 268 4,200 -1,020 Descending Boston Center
08:12PM 42.1667 -71.0333 240° Southwest 211 243 3,000 -660 Descending KA90
08:13PM 42.2167 -71.0667 334° Northwest 210 242 3,000 -540 Level KA90
08:14PM 42.2667 -71.0500 14° North 186 214 2,000 -960 Descending KA90
08:15PM 42.3000 -71.0333 20° North 166 191 1,100 -900 Descending KA90
08:16PM 42.3500 -71.0167 14° North 140 161 300 -840 Descending KA90